sensor_id;sensor_type;location;lat;lon;timestamp;temperature;humidity
55648;DHT22;45266;48.756;9.246;2023-12-14T00:03:12;5.00;96.50
55648;DHT22;45266;48.756;9.246;2023-12-14T00:08:15;4.90;96.60
55648;DHT22;45266;48.756;9.246;2023-12-14T00:13:17;4.80;96.70
55648;DHT22;45266;48.756;9.246;2023-12-14T00:18:19;4.80;96.80
55648;DHT22;45266;48.756;9.246;2023-12-14T00:23:22;4.70;96.70
55648;DHT22;45266;48.756;9.246;2023-12-14T00:28:24;4.70;97.00
55648;DHT22;45266;48.756;9.246;2023-12-14T00:33:31;4.70;97.00
55648;DHT22;45266;48.756;9.246;2023-12-14T00:38:34;4.70;97.10
55648;DHT22;45266;48.756;9.246;2023-12-14T00:43:36;4.70;97.40
55648;DHT22;45266;48.756;9.246;2023-12-14T00:48:39;4.70;97.10
55648;DHT22;45266;48.756;9.246;2023-12-14T00:53:41;4.70;97.20
55648;DHT22;45266;48.756;9.246;2023-12-14T00:58:44;4.70;97.30
55648;DHT22;45266;48.756;9.246;2023-12-14T01:03:46;4.70;97.20
55648;DHT22;45266;48.756;9.246;2023-12-14T01:08:48;4.70;97.50
55648;DHT22;45266;48.756;9.246;2023-12-14T01:13:50;4.70;97.40
55648;DHT22;45266;48.756;9.246;2023-12-14T01:18:52;4.70;97.50
55648;DHT22;45266;48.756;9.246;2023-12-14T01:23:54;4.70;97.60
55648;DHT22;45266;48.756;9.246;2023-12-14T01:28:55;4.70;97.50
55648;DHT22;45266;48.756;9.246;2023-12-14T01:33:58;4.60;97.30
55648;DHT22;45266;48.756;9.246;2023-12-14T01:39:11;4.60;97.70
55648;DHT22;45266;48.756;9.246;2023-12-14T01:44:13;4.50;97.50
55648;DHT22;45266;48.756;9.246;2023-12-14T01:49:15;4.60;97.90
55648;DHT22;45266;48.756;9.246;2023-12-14T01:54:17;4.60;97.70
55648;DHT22;45266;48.756;9.246;2023-12-14T01:59:20;4.60;98.00
55648;DHT22;45266;48.756;9.246;2023-12-14T02:04:23;4.60;98.20
55648;DHT22;45266;48.756;9.246;2023-12-14T02:09:26;4.70;98.20
55648;DHT22;45266;48.756;9.246;2023-12-14T02:14:29;4.70;98.10
55648;DHT22;45266;48.756;9.246;2023-12-14T02:19:32;4.70;98.20
55648;DHT22;45266;48.756;9.246;2023-12-14T02:24:34;4.60;98.10
55648;DHT22;45266;48.756;9.246;2023-12-14T02:29:35;4.60;98.30
55648;DHT22;45266;48.756;9.246;2023-12-14T02:34:38;4.60;98.20
55648;DHT22;45266;48.756;9.246;2023-12-14T02:39:40;4.50;98.20
55648;DHT22;45266;48.756;9.246;2023-12-14T02:44:42;4.50;98.40
55648;DHT22;45266;48.756;9.246;2023-12-14T02:49:45;4.50;98.20
55648;DHT22;45266;48.756;9.246;2023-12-14T02:54:47;4.50;98.40
55648;DHT22;45266;48.756;9.246;2023-12-14T02:59:49;4.50;98.40
55648;DHT22;45266;48.756;9.246;2023-12-14T03:04:51;4.50;98.30
55648;DHT22;45266;48.756;9.246;2023-12-14T03:09:54;4.50;98.60
55648;DHT22;45266;48.756;9.246;2023-12-14T03:14:56;4.50;98.70
55648;DHT22;45266;48.756;9.246;2023-12-14T03:19:58;4.40;98.40
55648;DHT22;45266;48.756;9.246;2023-12-14T03:25:01;4.30;98.40
55648;DHT22;45266;48.756;9.246;2023-12-14T03:30:03;4.40;98.70
55648;DHT22;45266;48.756;9.246;2023-12-14T03:35:09;4.40;99.00
55648;DHT22;45266;48.756;9.246;2023-12-14T03:40:12;4.40;98.90
55648;DHT22;45266;48.756;9.246;2023-12-14T03:45:14;4.40;99.10
55648;DHT22;45266;48.756;9.246;2023-12-14T03:50:16;4.50;98.90
55648;DHT22;45266;48.756;9.246;2023-12-14T03:55:18;4.50;99.10
55648;DHT22;45266;48.756;9.246;2023-12-14T04:00:20;4.50;99.10
55648;DHT22;45266;48.756;9.246;2023-12-14T04:05:22;4.50;99.00
55648;DHT22;45266;48.756;9.246;2023-12-14T04:10:24;4.50;98.80
55648;DHT22;45266;48.756;9.246;2023-12-14T04:15:26;4.40;98.50
55648;DHT22;45266;48.756;9.246;2023-12-14T04:20:28;4.40;98.80
55648;DHT22;45266;48.756;9.246;2023-12-14T04:25:31;4.40;99.00
55648;DHT22;45266;48.756;9.246;2023-12-14T04:30:33;4.40;98.90
55648;DHT22;45266;48.756;9.246;2023-12-14T04:35:35;4.30;98.60
55648;DHT22;45266;48.756;9.246;2023-12-14T04:40:38;4.30;98.90
55648;DHT22;45266;48.756;9.246;2023-12-14T04:45:43;4.40;99.30
55648;DHT22;45266;48.756;9.246;2023-12-14T04:50:46;4.40;99.50
55648;DHT22;45266;48.756;9.246;2023-12-14T04:55:48;4.50;99.60
55648;DHT22;45266;48.756;9.246;2023-12-14T05:00:50;4.50;99.50
55648;DHT22;45266;48.756;9.246;2023-12-14T05:05:52;4.50;99.50
55648;DHT22;45266;48.756;9.246;2023-12-14T05:10:54;4.50;99.50
55648;DHT22;45266;48.756;9.246;2023-12-14T05:15:56;4.50;99.70
55648;DHT22;45266;48.756;9.246;2023-12-14T05:21:01;4.50;99.90
55648;DHT22;45266;48.756;9.246;2023-12-14T05:26:12;4.60;99.90
55648;DHT22;45266;48.756;9.246;2023-12-14T05:31:25;4.70;99.90
55648;DHT22;45266;48.756;9.246;2023-12-14T05:36:27;4.70;99.70
55648;DHT22;45266;48.756;9.246;2023-12-14T05:41:29;4.70;99.70
55648;DHT22;45266;48.756;9.246;2023-12-14T05:46:31;4.60;99.80
55648;DHT22;45266;48.756;9.246;2023-12-14T05:51:33;4.70;99.80
55648;DHT22;45266;48.756;9.246;2023-12-14T05:56:35;4.70;99.70
55648;DHT22;45266;48.756;9.246;2023-12-14T06:01:59;4.70;99.80
55648;DHT22;45266;48.756;9.246;2023-12-14T06:07:14;4.60;99.60
55648;DHT22;45266;48.756;9.246;2023-12-14T06:12:17;4.70;99.70
55648;DHT22;45266;48.756;9.246;2023-12-14T06:17:19;4.70;99.90
55648;DHT22;45266;48.756;9.246;2023-12-14T06:22:22;4.90;99.90
55648;DHT22;45266;48.756;9.246;2023-12-14T06:27:25;4.80;99.90
55648;DHT22;45266;48.756;9.246;2023-12-14T06:32:28;4.80;99.90
55648;DHT22;45266;48.756;9.246;2023-12-14T06:37:31;4.70;99.90
55648;DHT22;45266;48.756;9.246;2023-12-14T06:42:35;4.70;99.90
55648;DHT22;45266;48.756;9.246;2023-12-14T06:47:44;4.80;99.90
55648;DHT22;45266;48.756;9.246;2023-12-14T06:52:49;4.90;99.90
55648;DHT22;45266;48.756;9.246;2023-12-14T06:57:51;4.90;99.90
55648;DHT22;45266;48.756;9.246;2023-12-14T07:02:54;4.90;99.90
55648;DHT22;45266;48.756;9.246;2023-12-14T07:07:56;5.00;99.90
55648;DHT22;45266;48.756;9.246;2023-12-14T07:12:58;5.00;99.90
55648;DHT22;45266;48.756;9.246;2023-12-14T07:18:00;5.00;99.90
55648;DHT22;45266;48.756;9.246;2023-12-14T07:23:02;5.00;99.90
55648;DHT22;45266;48.756;9.246;2023-12-14T07:28:04;5.00;99.90
55648;DHT22;45266;48.756;9.246;2023-12-14T07:33:06;5.00;99.90
55648;DHT22;45266;48.756;9.246;2023-12-14T07:38:11;5.00;99.90
55648;DHT22;45266;48.756;9.246;2023-12-14T07:43:13;5.10;99.90
55648;DHT22;45266;48.756;9.246;2023-12-14T07:48:15;5.00;99.90
55648;DHT22;45266;48.756;9.246;2023-12-14T07:53:17;5.00;99.90
55648;DHT22;45266;48.756;9.246;2023-12-14T07:58:20;5.00;99.90
55648;DHT22;45266;48.756;9.246;2023-12-14T08:03:25;5.10;99.90
55648;DHT22;45266;48.756;9.246;2023-12-14T08:08:30;5.10;99.90
55648;DHT22;45266;48.756;9.246;2023-12-14T08:13:36;5.20;99.90
55648;DHT22;45266;48.756;9.246;2023-12-14T08:18:40;5.30;99.90
55648;DHT22;45266;48.756;9.246;2023-12-14T08:23:46;5.30;99.90
55648;DHT22;45266;48.756;9.246;2023-12-14T08:28:51;5.30;99.90
55648;DHT22;45266;48.756;9.246;2023-12-14T08:33:56;5.40;99.90
55648;DHT22;45266;48.756;9.246;2023-12-14T08:39:02;5.50;99.90
55648;DHT22;45266;48.756;9.246;2023-12-14T08:44:08;5.50;99.90
55648;DHT22;45266;48.756;9.246;2023-12-14T08:49:15;5.60;99.90
55648;DHT22;45266;48.756;9.246;2023-12-14T08:54:21;5.60;99.90
55648;DHT22;45266;48.756;9.246;2023-12-14T08:59:23;5.70;99.90
55648;DHT22;45266;48.756;9.246;2023-12-14T09:04:26;5.80;99.90
55648;DHT22;45266;48.756;9.246;2023-12-14T09:09:30;6.00;99.90
55648;DHT22;45266;48.756;9.246;2023-12-14T09:14:35;6.20;99.90
55648;DHT22;45266;48.756;9.246;2023-12-14T09:19:38;6.20;99.90
55648;DHT22;45266;48.756;9.246;2023-12-14T09:24:41;6.40;99.90
55648;DHT22;45266;48.756;9.246;2023-12-14T09:29:45;6.40;99.60
55648;DHT22;45266;48.756;9.246;2023-12-14T09:34:50;6.50;99.50
55648;DHT22;45266;48.756;9.246;2023-12-14T09:39:54;6.60;99.50
55648;DHT22;45266;48.756;9.246;2023-12-14T09:44:59;6.70;98.70
55648;DHT22;45266;48.756;9.246;2023-12-14T09:50:05;6.80;98.10
55648;DHT22;45266;48.756;9.246;2023-12-14T09:55:08;6.90;96.80
55648;DHT22;45266;48.756;9.246;2023-12-14T10:00:11;7.00;96.20
55648;DHT22;45266;48.756;9.246;2023-12-14T10:05:16;7.00;95.70
55648;DHT22;45266;48.756;9.246;2023-12-14T10:10:20;7.00;94.70
55648;DHT22;45266;48.756;9.246;2023-12-14T10:15:22;7.10;95.20
55648;DHT22;45266;48.756;9.246;2023-12-14T10:20:29;7.20;94.60
55648;DHT22;45266;48.756;9.246;2023-12-14T10:25:38;7.40;94.20
55648;DHT22;45266;48.756;9.246;2023-12-14T10:30:42;7.60;92.60
55648;DHT22;45266;48.756;9.246;2023-12-14T10:35:44;7.70;90.80
55648;DHT22;45266;48.756;9.246;2023-12-14T10:40:50;7.70;91.00
55648;DHT22;45266;48.756;9.246;2023-12-14T10:45:56;7.80;89.80
55648;DHT22;45266;48.756;9.246;2023-12-14T10:51:05;7.80;89.90
55648;DHT22;45266;48.756;9.246;2023-12-14T10:56:12;8.00;89.10
55648;DHT22;45266;48.756;9.246;2023-12-14T11:01:22;8.10;86.90
55648;DHT22;45266;48.756;9.246;2023-12-14T11:12:03;8.20;86.90
55648;DHT22;45266;48.756;9.246;2023-12-14T11:17:08;8.10;85.60
55648;DHT22;45266;48.756;9.246;2023-12-14T11:22:23;8.00;84.90
55648;DHT22;45266;48.756;9.246;2023-12-14T11:27:29;8.00;85.70
55648;DHT22;45266;48.756;9.246;2023-12-14T11:32:35;8.10;85.80
55648;DHT22;45266;48.756;9.246;2023-12-14T11:37:40;8.10;86.20
55648;DHT22;45266;48.756;9.246;2023-12-14T11:42:45;8.20;85.60
55648;DHT22;45266;48.756;9.246;2023-12-14T11:47:48;8.10;86.10
55648;DHT22;45266;48.756;9.246;2023-12-14T11:52:50;8.10;85.60
55648;DHT22;45266;48.756;9.246;2023-12-14T11:57:57;8.10;86.20
55648;DHT22;45266;48.756;9.246;2023-12-14T12:03:20;8.00;85.70
55648;DHT22;45266;48.756;9.246;2023-12-14T12:08:24;8.00;85.60
55648;DHT22;45266;48.756;9.246;2023-12-14T12:13:30;8.00;86.60
55648;DHT22;45266;48.756;9.246;2023-12-14T12:18:36;8.00;85.30
55648;DHT22;45266;48.756;9.246;2023-12-14T12:23:42;8.00;85.70
55648;DHT22;45266;48.756;9.246;2023-12-14T12:28:44;8.00;84.60
55648;DHT22;45266;48.756;9.246;2023-12-14T12:33:49;8.00;81.90
55648;DHT22;45266;48.756;9.246;2023-12-14T12:38:51;7.90;82.60
55648;DHT22;45266;48.756;9.246;2023-12-14T12:43:54;7.90;83.20
55648;DHT22;45266;48.756;9.246;2023-12-14T12:48:56;7.90;82.30
55648;DHT22;45266;48.756;9.246;2023-12-14T12:54:00;7.90;82.50
55648;DHT22;45266;48.756;9.246;2023-12-14T12:59:14;7.80;81.30
55648;DHT22;45266;48.756;9.246;2023-12-14T13:04:20;7.70;81.20
55648;DHT22;45266;48.756;9.246;2023-12-14T13:09:23;7.70;81.80
55648;DHT22;45266;48.756;9.246;2023-12-14T13:14:25;7.60;80.10
55648;DHT22;45266;48.756;9.246;2023-12-14T13:19:28;7.60;80.30
55648;DHT22;45266;48.756;9.246;2023-12-14T13:24:34;7.50;80.50
55648;DHT22;45266;48.756;9.246;2023-12-14T13:29:36;7.50;81.80
55648;DHT22;45266;48.756;9.246;2023-12-14T13:34:39;7.30;83.00
55648;DHT22;45266;48.756;9.246;2023-12-14T13:39:42;7.20;82.60
55648;DHT22;45266;48.756;9.246;2023-12-14T13:44:47;7.20;83.70
55648;DHT22;45266;48.756;9.246;2023-12-14T13:49:51;7.10;84.70
55648;DHT22;45266;48.756;9.246;2023-12-14T13:54:57;7.00;86.70
55648;DHT22;45266;48.756;9.246;2023-12-14T14:00:06;6.90;87.70
55648;DHT22;45266;48.756;9.246;2023-12-14T14:05:13;6.70;88.30
55648;DHT22;45266;48.756;9.246;2023-12-14T14:10:20;6.60;89.20
55648;DHT22;45266;48.756;9.246;2023-12-14T14:15:27;6.50;90.10
55648;DHT22;45266;48.756;9.246;2023-12-14T14:20:33;6.50;90.80
55648;DHT22;45266;48.756;9.246;2023-12-14T14:25:35;6.40;91.20
55648;DHT22;45266;48.756;9.246;2023-12-14T14:30:37;6.40;91.90
55648;DHT22;45266;48.756;9.246;2023-12-14T14:35:42;6.40;92.40
55648;DHT22;45266;48.756;9.246;2023-12-14T14:40:50;6.40;92.40
55648;DHT22;45266;48.756;9.246;2023-12-14T14:45:54;6.40;92.90
55648;DHT22;45266;48.756;9.246;2023-12-14T14:50:57;6.40;93.30
55648;DHT22;45266;48.756;9.246;2023-12-14T14:56:02;6.40;93.70
55648;DHT22;45266;48.756;9.246;2023-12-14T15:01:07;6.40;93.50
55648;DHT22;45266;48.756;9.246;2023-12-14T15:06:20;6.50;93.20
55648;DHT22;45266;48.756;9.246;2023-12-14T15:11:36;6.40;93.30
55648;DHT22;45266;48.756;9.246;2023-12-14T15:16:48;6.40;93.80
55648;DHT22;45266;48.756;9.246;2023-12-14T15:22:01;6.40;94.30
55648;DHT22;45266;48.756;9.246;2023-12-14T15:27:12;6.40;94.40
55648;DHT22;45266;48.756;9.246;2023-12-14T15:32:23;6.40;94.10
55648;DHT22;45266;48.756;9.246;2023-12-14T15:37:36;6.40;94.10
55648;DHT22;45266;48.756;9.246;2023-12-14T15:42:47;6.40;94.20
55648;DHT22;45266;48.756;9.246;2023-12-14T15:48:02;6.40;94.30
55648;DHT22;45266;48.756;9.246;2023-12-14T15:53:14;6.30;94.10
55648;DHT22;45266;48.756;9.246;2023-12-14T15:58:27;6.20;94.10
55648;DHT22;45266;48.756;9.246;2023-12-14T16:03:43;6.10;94.30
55648;DHT22;45266;48.756;9.246;2023-12-14T16:08:59;6.10;94.30
55648;DHT22;45266;48.756;9.246;2023-12-14T16:14:15;6.00;94.60
55648;DHT22;45266;48.756;9.246;2023-12-14T16:19:29;6.00;94.90
55648;DHT22;45266;48.756;9.246;2023-12-14T16:24:42;6.00;95.00
55648;DHT22;45266;48.756;9.246;2023-12-14T16:29:56;6.00;95.40
55648;DHT22;45266;48.756;9.246;2023-12-14T16:35:06;6.00;95.70
55648;DHT22;45266;48.756;9.246;2023-12-14T16:40:19;5.90;95.80
55648;DHT22;45266;48.756;9.246;2023-12-14T16:45:31;5.90;95.90
55648;DHT22;45266;48.756;9.246;2023-12-14T16:50:43;5.90;96.00
55648;DHT22;45266;48.756;9.246;2023-12-14T16:56:04;5.80;96.20
55648;DHT22;45266;48.756;9.246;2023-12-14T17:01:22;5.80;96.50
55648;DHT22;45266;48.756;9.246;2023-12-14T17:06:55;5.90;96.80
55648;DHT22;45266;48.756;9.246;2023-12-14T17:12:25;5.90;97.20
55648;DHT22;45266;48.756;9.246;2023-12-14T17:17:42;5.80;97.00
55648;DHT22;45266;48.756;9.246;2023-12-14T17:23:04;5.80;97.10
55648;DHT22;45266;48.756;9.246;2023-12-14T17:28:22;5.90;96.70
55648;DHT22;45266;48.756;9.246;2023-12-14T17:33:33;5.90;94.40
55648;DHT22;45266;48.756;9.246;2023-12-14T17:38:47;6.00;92.70
55648;DHT22;45266;48.756;9.246;2023-12-14T17:43:58;6.00;92.60
55648;DHT22;45266;48.756;9.246;2023-12-14T17:49:09;5.90;91.90
55648;DHT22;45266;48.756;9.246;2023-12-14T17:54:20;5.80;91.80
55648;DHT22;45266;48.756;9.246;2023-12-14T17:59:33;5.70;92.70
55648;DHT22;45266;48.756;9.246;2023-12-14T18:04:49;5.70;94.00
55648;DHT22;45266;48.756;9.246;2023-12-14T18:10:05;5.70;95.50
55648;DHT22;45266;48.756;9.246;2023-12-14T18:15:22;5.70;95.90
55648;DHT22;45266;48.756;9.246;2023-12-14T18:20:32;5.60;95.30
55648;DHT22;45266;48.756;9.246;2023-12-14T18:25:45;5.50;95.70
55648;DHT22;45266;48.756;9.246;2023-12-14T18:31:00;5.50;96.20
55648;DHT22;45266;48.756;9.246;2023-12-14T18:36:15;5.50;96.30
55648;DHT22;45266;48.756;9.246;2023-12-14T18:41:30;5.50;96.30
55648;DHT22;45266;48.756;9.246;2023-12-14T18:46:44;5.50;95.30
55648;DHT22;45266;48.756;9.246;2023-12-14T18:51:54;5.50;95.20
55648;DHT22;45266;48.756;9.246;2023-12-14T18:57:06;5.50;95.20
55648;DHT22;45266;48.756;9.246;2023-12-14T19:02:21;5.30;94.60
55648;DHT22;45266;48.756;9.246;2023-12-14T19:07:36;5.30;93.90
55648;DHT22;45266;48.756;9.246;2023-12-14T19:12:51;5.30;94.00
55648;DHT22;45266;48.756;9.246;2023-12-14T19:18:06;5.20;94.00
55648;DHT22;45266;48.756;9.246;2023-12-14T19:23:20;5.20;94.60
55648;DHT22;45266;48.756;9.246;2023-12-14T19:28:36;5.20;95.20
55648;DHT22;45266;48.756;9.246;2023-12-14T19:33:47;5.30;95.20
55648;DHT22;45266;48.756;9.246;2023-12-14T19:39:00;5.20;95.50
55648;DHT22;45266;48.756;9.246;2023-12-14T19:44:15;5.10;95.20
55648;DHT22;45266;48.756;9.246;2023-12-14T19:49:28;5.10;95.30
55648;DHT22;45266;48.756;9.246;2023-12-14T19:54:42;5.10;95.00
55648;DHT22;45266;48.756;9.246;2023-12-14T19:59:55;5.10;95.00
55648;DHT22;45266;48.756;9.246;2023-12-14T20:05:07;5.10;95.20
55648;DHT22;45266;48.756;9.246;2023-12-14T20:10:20;5.10;94.60
55648;DHT22;45266;48.756;9.246;2023-12-14T20:15:32;5.10;94.40
55648;DHT22;45266;48.756;9.246;2023-12-14T20:20:40;5.10;93.90
55648;DHT22;45266;48.756;9.246;2023-12-14T20:25:50;5.10;93.20
55648;DHT22;45266;48.756;9.246;2023-12-14T20:31:02;5.10;93.00
55648;DHT22;45266;48.756;9.246;2023-12-14T20:36:15;5.10;93.10
55648;DHT22;45266;48.756;9.246;2023-12-14T20:41:27;5.10;92.50
55648;DHT22;45266;48.756;9.246;2023-12-14T20:46:38;5.00;92.00
55648;DHT22;45266;48.756;9.246;2023-12-14T20:51:51;5.00;92.40
55648;DHT22;45266;48.756;9.246;2023-12-14T20:57:03;5.00;92.10
55648;DHT22;45266;48.756;9.246;2023-12-14T21:02:15;5.00;90.70
55648;DHT22;45266;48.756;9.246;2023-12-14T21:07:24;4.80;90.50
55648;DHT22;45266;48.756;9.246;2023-12-14T21:12:40;4.70;90.80
55648;DHT22;45266;48.756;9.246;2023-12-14T21:17:51;4.60;91.20
55648;DHT22;45266;48.756;9.246;2023-12-14T21:23:06;4.50;91.30
55648;DHT22;45266;48.756;9.246;2023-12-14T21:28:20;4.50;91.80
55648;DHT22;45266;48.756;9.246;2023-12-14T21:33:36;4.40;92.00
55648;DHT22;45266;48.756;9.246;2023-12-14T21:38:50;4.50;92.40
55648;DHT22;45266;48.756;9.246;2023-12-14T21:44:00;4.40;92.30
55648;DHT22;45266;48.756;9.246;2023-12-14T21:49:07;4.30;92.10
55648;DHT22;45266;48.756;9.246;2023-12-14T21:54:22;4.30;92.50
55648;DHT22;45266;48.756;9.246;2023-12-14T21:59:30;4.20;92.30
55648;DHT22;45266;48.756;9.246;2023-12-14T22:04:41;4.20;92.50
55648;DHT22;45266;48.756;9.246;2023-12-14T22:09:51;4.20;92.40
55648;DHT22;45266;48.756;9.246;2023-12-14T22:15:01;4.10;91.90
55648;DHT22;45266;48.756;9.246;2023-12-14T22:20:11;4.20;91.60
55648;DHT22;45266;48.756;9.246;2023-12-14T22:25:20;4.10;92.20
55648;DHT22;45266;48.756;9.246;2023-12-14T22:30:30;4.00;92.20
55648;DHT22;45266;48.756;9.246;2023-12-14T22:35:43;4.00;91.80
55648;DHT22;45266;48.756;9.246;2023-12-14T22:40:51;3.90;92.10
55648;DHT22;45266;48.756;9.246;2023-12-14T22:46:02;3.80;92.70
55648;DHT22;45266;48.756;9.246;2023-12-14T22:51:17;3.70;93.40
55648;DHT22;45266;48.756;9.246;2023-12-14T22:56:30;3.70;93.90
55648;DHT22;45266;48.756;9.246;2023-12-14T23:01:41;3.70;94.00
55648;DHT22;45266;48.756;9.246;2023-12-14T23:06:48;3.70;93.50
55648;DHT22;45266;48.756;9.246;2023-12-14T23:11:59;3.70;93.70
55648;DHT22;45266;48.756;9.246;2023-12-14T23:17:08;3.70;94.40
55648;DHT22;45266;48.756;9.246;2023-12-14T23:22:18;3.60;94.40
55648;DHT22;45266;48.756;9.246;2023-12-14T23:27:35;3.60;94.20
55648;DHT22;45266;48.756;9.246;2023-12-14T23:32:44;3.50;94.50
55648;DHT22;45266;48.756;9.246;2023-12-14T23:37:55;3.50;94.70
55648;DHT22;45266;48.756;9.246;2023-12-14T23:43:05;3.50;94.90
55648;DHT22;45266;48.756;9.246;2023-12-14T23:48:15;3.50;95.00
55648;DHT22;45266;48.756;9.246;2023-12-14T23:53:24;3.60;95.40
55648;DHT22;45266;48.756;9.246;2023-12-14T23:58:35;3.60;95.20
